Time;durP1;ratioP1;P1;durP2;ratioP2;P2;SDS_P1;SDS_P2;PMS_P1;PMS_P2;Temp;Humidity;BMP_temperature;BMP_pressure;BME280_temperature;BME280_humidity;BME280_pressure;Samples;Min_cycle;Max_cycle;Signal;HPM_P1;HPM_P2
2022/12/22 03:25:52;;;;;;;15.03;13.63;;;;;;;-1.17;80.60;92912.94;5089389;28;20317;-69
2022/12/22 03:28:20;;;;;;;16.77;13.50;;;;;;;-1.13;81.52;92908.97;5084703;28;20215;-69
2022/12/22 03:30:52;;;;;;;14.40;12.97;;;;;;;-0.95;81.59;92904.00;5090085;28;20212;-70
2022/12/22 03:33:17;;;;;;;14.60;13.40;;;;;;;-1.13;83.35;92914.88;5089765;28;20208;-69
2022/12/22 03:35:43;;;;;;;27.10;18.10;;;;;;;-1.18;83.02;92896.00;5092680;28;20230;-69
2022/12/22 03:38:08;;;;;;;16.97;15.37;;;;;;;-1.20;81.64;92903.09;5091538;28;20169;-69
2022/12/22 03:40:34;;;;;;;18.63;15.47;;;;;;;-1.18;81.71;92899.31;5080163;28;20256;-69
2022/12/22 03:48:34;;;;;;;21.00;14.87;;;;;;;-1.17;81.58;92908.59;5059765;28;20204;-69
2022/12/22 03:51:00;;;;;;;15.03;13.43;;;;;;;-1.10;81.25;92914.47;5092858;28;20229;-69
2022/12/22 03:53:25;;;;;;;14.97;13.70;;;;;;;-1.26;81.96;92898.78;5091528;28;20216;-69
2022/12/22 03:55:50;;;;;;;17.67;14.70;;;;;;;-1.15;81.64;92916.09;5085132;28;20232;-68
2022/12/22 03:58:16;;;;;;;16.43;14.67;;;;;;;-1.02;80.82;92916.81;5087901;28;20189;-69
2022/12/22 04:00:41;;;;;;;16.50;14.80;;;;;;;-1.11;81.01;92912.13;5092871;28;20212;-69
2022/12/22 04:03:07;;;;;;;17.10;15.17;;;;;;;-1.07;81.78;92911.50;5091848;28;20185;-69
2022/12/22 04:05:32;;;;;;;16.80;15.17;;;;;;;-1.11;83.04;92912.91;5090119;28;20185;-69
2022/12/22 04:07:57;;;;;;;18.67;16.60;;;;;;;-1.18;83.59;92911.34;5092507;28;20244;-69
2022/12/22 04:13:07;;;;;;;20.60;15.03;;;;;;;-1.14;84.42;92902.28;5092012;28;20251;-69
2022/12/22 04:15:32;;;;;;;17.23;15.43;;;;;;;-1.04;83.00;92903.44;5090953;28;20180;-69
2022/12/22 04:17:58;;;;;;;17.10;15.30;;;;;;;-1.18;81.93;92890.88;5090001;28;20248;-68
2022/12/22 04:20:25;;;;;;;31.67;21.43;;;;;;;-1.12;81.34;92905.44;5092270;28;20229;-69
2022/12/22 04:22:54;;;;;;;22.90;17.50;;;;;;;-1.19;80.92;92909.75;5092350;28;20198;-69
2022/12/22 04:25:20;;;;;;;20.47;15.50;;;;;;;-1.12;81.10;92892.63;5086406;28;20188;-71
2022/12/22 04:27:46;;;;;;;19.33;16.67;;;;;;;-1.17;82.07;92902.69;5091823;28;20204;-69
2022/12/22 04:30:12;;;;;;;23.43;16.43;;;;;;;-1.33;83.36;92901.34;5084627;28;20185;-69
2022/12/22 04:32:37;;;;;;;19.10;16.60;;;;;;;-1.33;83.79;92896.22;5090281;28;20283;-67
2022/12/22 04:35:04;;;;;;;26.73;20.30;;;;;;;-1.45;83.04;92881.66;5092188;28;20192;-69
2022/12/22 04:37:29;;;;;;;31.93;19.73;;;;;;;-1.21;82.34;92899.72;5090786;28;20250;-69
2022/12/22 04:39:54;;;;;;;27.27;19.07;;;;;;;-1.31;81.69;92894.25;5092112;28;20177;-69
2022/12/22 04:42:20;;;;;;;30.80;18.57;;;;;;;-1.27;82.12;92899.72;5090729;28;20217;-68
2022/12/22 04:44:45;;;;;;;27.53;19.93;;;;;;;-1.35;82.07;92889.72;5085697;28;20284;-67
2022/12/22 04:47:11;;;;;;;31.17;21.03;;;;;;;-1.11;81.20;92904.44;5086566;28;20233;-69
2022/12/22 04:49:36;;;;;;;30.93;22.30;;;;;;;-1.07;81.74;92908.16;5090865;28;20193;-68
2022/12/22 04:52:01;;;;;;;27.93;19.47;;;;;;;-1.26;82.92;92888.53;5085791;28;20246;-69
2022/12/22 04:54:27;;;;;;;20.63;17.70;;;;;;;-1.04;81.40;92905.22;5090628;28;20227;-68
2022/12/22 04:56:52;;;;;;;17.47;15.60;;;;;;;-1.23;81.27;92898.38;5088123;28;20225;-69
2022/12/22 04:59:18;;;;;;;16.73;14.97;;;;;;;-1.28;83.03;92905.84;5081033;28;20178;-70
2022/12/22 05:01:43;;;;;;;17.60;15.40;;;;;;;-1.24;83.08;92884.75;5089855;28;20233;-72
2022/12/22 05:04:08;;;;;;;20.77;16.97;;;;;;;-1.23;83.69;92893.25;5087694;28;20196;-68
2022/12/22 05:06:34;;;;;;;17.50;15.93;;;;;;;-1.32;82.37;92894.44;5089997;28;20217;-69
2022/12/22 05:08:59;;;;;;;17.00;15.33;;;;;;;-1.37;82.57;92896.81;5089993;28;20177;-69
2022/12/22 05:11:25;;;;;;;17.53;15.37;;;;;;;-1.28;82.90;92898.16;5089408;28;20292;-68
2022/12/22 05:13:50;;;;;;;19.27;13.63;;;;;;;-1.09;81.24;92899.91;5088841;28;20235;-69
2022/12/22 05:16:16;;;;;;;17.73;16.03;;;;;;;-1.12;81.19;92890.06;5088892;28;20252;-68
2022/12/22 05:18:43;;;;;;;17.23;15.60;;;;;;;-1.08;81.70;92906.59;5090337;28;20196;-69
2022/12/22 05:21:11;;;;;;;15.77;14.13;;;;;;;-1.23;82.37;92898.38;5082170;28;21198;-68
2022/12/22 05:23:36;;;;;;;15.77;14.37;;;;;;;-1.28;82.89;92885.38;5090029;28;20216;-68
2022/12/22 05:26:02;;;;;;;15.47;13.83;;;;;;;-1.34;81.96;92892.09;5088546;28;20227;-67
2022/12/22 05:28:28;;;;;;;15.77;14.17;;;;;;;-1.23;82.02;92890.69;5089560;28;20197;-68
2022/12/22 05:30:54;;;;;;;15.33;13.80;;;;;;;-1.15;81.08;92901.47;5077766;28;20246;-69
2022/12/22 05:33:19;;;;;;;19.70;15.00;;;;;;;-1.11;83.29;92907.00;5090080;28;20223;-68
2022/12/22 05:35:45;;;;;;;18.87;16.00;;;;;;;-1.15;80.95;92900.72;5089929;28;20235;-68
2022/12/22 05:38:10;;;;;;;17.90;15.43;;;;;;;-1.22;81.05;92899.94;5088971;28;20195;-69
2022/12/22 05:40:35;;;;;;;34.17;19.93;;;;;;;-1.13;80.49;92896.16;5090430;28;20277;-68
2022/12/22 05:43:01;;;;;;;61.03;29.17;;;;;;;-1.02;79.70;92901.47;5073596;28;20219;-68
2022/12/22 05:45:26;;;;;;;57.60;26.57;;;;;;;-1.11;80.11;92905.22;5090390;28;20169;-68
2022/12/22 05:47:52;;;;;;;31.23;18.20;;;;;;;-1.10;81.23;92901.66;5091367;28;20189;-68
2022/12/22 05:50:20;;;;;;;21.90;17.70;;;;;;;-1.12;80.78;92888.28;5090218;28;20180;-69
2022/12/22 05:52:46;;;;;;;14.23;13.10;;;;;;;-1.10;81.12;92885.50;5090001;28;20224;-69
2022/12/22 05:55:13;;;;;;;15.20;13.67;;;;;;;-0.87;80.04;92906.34;5089000;28;20220;-69
2022/12/22 05:57:39;;;;;;;15.40;14.00;;;;;;;-1.08;81.37;92906.59;5080226;28;20213;-68
2022/12/22 06:00:06;;;;;;;15.03;13.77;;;;;;;-1.01;82.11;92907.38;5087298;28;20888;-69
2022/12/22 06:02:32;;;;;;;13.70;12.70;;;;;;;-0.90;80.87;92912.63;5089250;28;20213;-68
2022/12/22 06:04:57;;;;;;;15.90;14.50;;;;;;;-0.80;79.54;92909.66;5089756;28;20199;-68
2022/12/22 06:07:23;;;;;;;15.27;13.57;;;;;;;-0.86;79.53;92905.34;5090108;28;20263;-68
2022/12/22 06:09:48;;;;;;;17.13;15.53;;;;;;;-0.97;80.78;92908.53;5078924;28;21319;-69
2022/12/22 06:12:14;;;;;;;17.83;14.23;;;;;;;-0.87;80.58;92909.69;5086519;28;21061;-68
2022/12/22 06:14:39;;;;;;;20.77;16.97;;;;;;;-0.87;79.87;92901.22;5090186;28;20217;-69
2022/12/22 06:17:05;;;;;;;21.23;19.00;;;;;;;-0.89;80.96;92903.19;5081626;28;20312;-68
2022/12/22 06:19:30;;;;;;;16.43;13.73;;;;;;;-0.72;78.34;92909.44;5088001;28;20193;-68
2022/12/22 06:21:56;;;;;;;15.43;13.90;;;;;;;-0.70;78.23;92899.78;5090124;28;20235;-69
2022/12/22 06:24:21;;;;;;;14.73;13.40;;;;;;;-0.69;79.12;92914.16;5090273;28;20210;-68
2022/12/22 06:26:48;;;;;;;17.70;14.07;;;;;;;-0.70;78.71;92915.16;5085589;28;20220;-69
2022/12/22 06:29:13;;;;;;;15.10;13.73;;;;;;;-0.78;79.88;92917.94;5089970;28;20211;-68
2022/12/22 06:31:38;;;;;;;14.73;13.40;;;;;;;-0.81;79.98;92913.97;5089855;28;20254;-69
2022/12/22 06:34:04;;;;;;;18.17;14.37;;;;;;;-0.55;78.71;92921.59;5090185;28;20204;-69
2022/12/22 06:36:29;;;;;;;16.83;14.97;;;;;;;-0.63;79.23;92908.22;5089618;28;20265;-69
2022/12/22 06:38:54;;;;;;;16.13;13.80;;;;;;;-0.52;79.71;92905.81;5089913;28;20188;-68
2022/12/22 06:44:05;;;;;;;20.50;16.03;;;;;;;-0.47;79.74;92923.91;5078184;28;20180;-69
2022/12/22 06:46:30;;;;;;;20.73;17.00;;;;;;;-0.38;79.63;92924.47;5089543;28;20216;-67
2022/12/22 06:48:55;;;;;;;26.27;18.20;;;;;;;-0.28;79.36;92924.81;5089487;28;20212;-69
2022/12/22 06:51:21;;;;;;;30.20;20.10;;;;;;;-0.14;79.12;92924.53;5089616;28;20220;-69
2022/12/22 06:53:46;;;;;;;32.67;20.70;;;;;;;-0.12;78.24;92926.88;5087398;28;20216;-68
2022/12/22 06:56:12;;;;;;;36.07;20.20;;;;;;;-0.06;77.82;92926.06;5085079;28;20228;-68
2022/12/22 06:58:37;;;;;;;40.30;24.43;;;;;;;-0.02;78.02;92937.50;5089600;28;20176;-69
2022/12/22 07:01:03;;;;;;;45.87;24.93;;;;;;;0.02;78.29;92930.94;5089119;28;20224;-69
2022/12/22 07:03:28;;;;;;;46.70;26.03;;;;;;;0.04;78.02;92931.53;5089515;28;20184;-68
2022/12/22 07:05:53;;;;;;;36.17;23.70;;;;;;;0.14;77.56;92928.50;5089568;28;20233;-69
2022/12/22 07:08:19;;;;;;;33.07;22.23;;;;;;;0.21;77.42;92931.81;5092800;28;20210;-69
2022/12/22 07:10:56;;;;;;;37.97;22.80;;;;;;;0.17;77.78;92908.34;5094033;28;20235;-69
2022/12/22 07:13:24;;;;;;;31.13;21.60;;;;;;;0.31;78.70;92922.66;5086065;28;20221;-69
2022/12/22 07:15:50;;;;;;;25.67;20.50;;;;;;;0.44;78.89;92929.44;5078051;28;20225;-69
2022/12/22 07:18:15;;;;;;;25.27;19.63;;;;;;;0.36;78.27;92937.44;5089276;28;20187;-68
2022/12/22 07:20:41;;;;;;;25.80;19.33;;;;;;;0.36;77.58;92935.63;5089259;28;20228;-69
2022/12/22 07:23:06;;;;;;;30.33;22.07;;;;;;;0.37;77.88;92944.13;5089528;28;20192;-69
2022/12/22 07:25:32;;;;;;;37.37;22.60;;;;;;;0.41;78.17;92946.06;5085382;28;20193;-69
2022/12/22 07:27:57;;;;;;;39.43;27.07;;;;;;;0.38;79.14;92945.69;5072066;28;20180;-68
2022/12/22 07:30:23;;;;;;;52.67;31.17;;;;;;;0.43;79.34;92944.09;5089337;28;20199;-69
2022/12/22 07:32:48;;;;;;;50.20;30.03;;;;;;;0.44;79.63;92950.00;5089230;28;20203;-68
2022/12/22 07:35:13;;;;;;;46.33;27.70;;;;;;;0.46;79.59;92932.59;5099058;28;20203;-69
2022/12/22 07:37:39;;;;;;;45.90;29.23;;;;;;;0.37;79.49;92913.31;5081699;28;20217;-69
2022/12/22 07:40:05;;;;;;;45.47;30.40;;;;;;;0.53;79.50;92926.41;5089690;28;20177;-68
2022/12/22 07:42:45;;;;;;;59.50;31.97;;;;;;;0.90;77.46;92917.00;5088691;28;20258;-68
2022/12/22 07:45:16;;;;;;;55.13;31.07;;;;;;;1.08;75.92;92928.09;5089106;28;20180;-68
2022/12/22 07:47:43;;;;;;;46.70;28.00;;;;;;;0.79;77.72;92938.25;5089508;28;20220;-68
2022/12/22 07:50:44;;;;;;;45.37;30.27;;;;;;;0.75;78.24;92940.47;5087161;28;20187;-69
2022/12/22 07:53:03;;;;;;;46.87;30.03;;;;;;;0.79;79.02;92939.06;5083341;28;20232;-68
2022/12/22 07:55:34;;;;;;;50.13;29.17;;;;;;;0.77;79.47;92946.19;5087430;28;20177;-69
2022/12/22 07:57:59;;;;;;;51.13;29.53;;;;;;;0.79;79.82;92938.25;5088967;28;20215;-69
2022/12/22 08:00:25;;;;;;;43.07;29.17;;;;;;;0.75;79.80;92925.03;5075054;28;20189;-69
2022/12/22 08:02:53;;;;;;;39.57;29.07;;;;;;;0.90;79.42;92940.13;5092371;28;20185;-69
2022/12/22 08:05:19;;;;;;;42.00;26.40;;;;;;;1.04;77.54;92932.06;5093302;28;20191;-68
2022/12/22 08:07:45;;;;;;;39.70;25.77;;;;;;;1.19;76.47;92929.97;5088960;28;20228;-69
2022/12/22 08:10:11;;;;;;;44.90;28.80;;;;;;;1.42;76.04;92934.44;5086329;28;20189;-68
2022/12/22 08:12:37;;;;;;;42.40;28.53;;;;;;;1.43;75.65;92929.06;5092425;28;20246;-69
2022/12/22 08:15:03;;;;;;;40.47;28.07;;;;;;;1.65;75.93;92939.69;5095320;28;20208;-69
2022/12/22 08:17:28;;;;;;;45.97;29.60;;;;;;;1.57;76.09;92937.44;5098517;28;20227;-68
2022/12/22 08:19:54;;;;;;;49.00;29.10;;;;;;;1.67;76.82;92936.94;5097672;28;20235;-68
2022/12/22 08:22:22;;;;;;;54.03;31.10;;;;;;;1.40;77.13;92914.09;5091917;28;20235;-69
2022/12/22 08:24:52;;;;;;;49.70;32.47;;;;;;;1.59;77.58;92931.06;5091974;28;20169;-68
2022/12/22 08:27:23;;;;;;;50.17;30.90;;;;;;;1.74;77.66;92935.06;5075828;28;20260;-67
2022/12/22 08:29:52;;;;;;;51.87;32.20;;;;;;;1.74;77.74;92927.34;5087164;28;20189;-70
2022/12/22 08:32:17;;;;;;;51.10;32.57;;;;;;;1.84;77.68;92933.53;5092863;28;20225;-67
2022/12/22 08:34:43;;;;;;;42.10;30.33;;;;;;;2.08;75.37;92934.41;5085604;28;20207;-68
2022/12/22 08:37:14;;;;;;;50.17;31.30;;;;;;;2.16;74.90;92929.75;5076214;28;20212;-68
2022/12/22 08:39:41;;;;;;;48.73;31.20;;;;;;;2.36;74.57;92943.13;5093457;28;20184;-67
2022/12/22 08:42:10;;;;;;;57.63;33.40;;;;;;;2.40;74.55;92928.00;5079616;28;20217;-70
2022/12/22 08:44:37;;;;;;;63.43;34.93;;;;;;;2.22;74.92;92935.78;5101955;28;20207;-68
2022/12/22 08:47:03;;;;;;;51.73;33.17;;;;;;;2.44;73.84;92921.41;5079290;28;20261;-68
2022/12/22 08:49:29;;;;;;;72.73;36.83;;;;;;;2.55;73.84;92926.56;5099618;28;20188;-67
2022/12/22 08:51:54;;;;;;;54.63;35.53;;;;;;;2.72;74.07;92942.16;5096331;28;20296;-69
2022/12/22 08:54:20;;;;;;;64.53;35.07;;;;;;;2.35;74.41;92917.59;5091104;28;20223;-69
2022/12/22 08:56:45;;;;;;;59.30;34.23;;;;;;;2.55;73.85;92928.38;5091124;28;20231;-68
2022/12/22 08:59:12;;;;;;;68.37;36.60;;;;;;;2.62;74.00;92924.69;5090913;28;20181;-68
2022/12/22 09:01:42;;;;;;;59.07;33.87;;;;;;;2.33;75.06;92927.31;5076434;28;20229;-69
2022/12/22 09:04:10;;;;;;;61.50;34.77;;;;;;;2.39;74.52;92901.47;5090387;28;20183;-68
2022/12/22 09:06:36;;;;;;;57.73;35.67;;;;;;;2.76;73.51;92902.84;5084421;28;20221;-68
2022/12/22 09:09:04;;;;;;;56.53;35.27;;;;;;;2.52;74.43;92906.38;5090751;28;20241;-67
2022/12/22 09:11:30;;;;;;;60.53;36.80;;;;;;;2.71;73.34;92889.03;5089941;28;20241;-68
2022/12/22 09:13:58;;;;;;;56.03;35.10;;;;;;;2.63;73.79;92899.69;5079290;28;20298;-68
2022/12/22 09:16:25;;;;;;;64.03;35.27;;;;;;;2.98;72.76;92892.75;5090349;28;20216;-69
2022/12/22 09:18:51;;;;;;;51.57;33.47;;;;;;;2.89;72.99;92901.81;5092549;28;20200;-67
2022/12/22 09:21:17;;;;;;;55.20;35.13;;;;;;;2.70;74.78;92895.22;5090403;28;20220;-69
2022/12/22 09:23:43;;;;;;;56.83;33.23;;;;;;;3.07;72.72;92883.63;5090860;28;20259;-69
2022/12/22 09:26:11;;;;;;;52.57;33.83;;;;;;;2.94;72.63;92879.50;5092736;28;20235;-69
2022/12/22 09:28:37;;;;;;;54.37;32.67;;;;;;;2.84;74.02;92889.63;5091650;28;20184;-67
2022/12/22 09:31:03;;;;;;;48.77;31.50;;;;;;;3.13;72.78;92893.06;5088826;28;20233;-71
2022/12/22 09:33:29;;;;;;;55.90;33.20;;;;;;;2.81;74.69;92887.50;5098318;28;20236;-71
2022/12/22 09:35:55;;;;;;;57.50;33.03;;;;;;;3.08;73.13;92885.22;5094063;28;20225;-69
2022/12/22 09:38:20;;;;;;;51.70;31.90;;;;;;;2.90;72.74;92883.56;5093609;28;20185;-70
2022/12/22 09:40:46;;;;;;;53.10;32.83;;;;;;;2.92;73.19;92865.28;5081178;28;20256;-70
2022/12/22 09:43:16;;;;;;;50.30;30.73;;;;;;;3.20;72.68;92886.78;5084305;28;20252;-69
2022/12/22 09:45:43;;;;;;;47.33;31.90;;;;;;;3.29;72.93;92884.63;5084469;28;20756;-69
2022/12/22 09:48:12;;;;;;;50.77;30.90;;;;;;;3.21;73.14;92880.59;5085773;28;20208;-68
2022/12/22 09:50:40;;;;;;;43.17;30.80;;;;;;;3.37;72.33;92886.06;5084387;28;20200;-68
2022/12/22 09:53:18;;;;;;;58.97;32.43;;;;;;;3.44;71.98;92886.72;5088483;28;20192;-68
2022/12/22 09:55:47;;;;;;;51.87;32.47;;;;;;;3.65;71.34;92884.31;5088675;28;20284;-71
2022/12/22 09:58:33;;;;;;;52.77;32.30;;;;;;;3.88;69.49;92875.69;5089487;28;20199;-69
2022/12/22 10:01:11;;;;;;;56.03;31.80;;;;;;;3.79;70.79;92879.66;5087915;28;20244;-70
2022/12/22 10:04:19;;;;;;;43.77;30.47;;;;;;;3.87;69.99;92874.91;5074240;28;20232;-70
2022/12/22 10:06:57;;;;;;;49.93;30.87;;;;;;;3.82;70.27;92861.13;5005545;28;20240;-68
2022/12/22 10:09:25;;;;;;;48.77;31.27;;;;;;;3.89;69.87;92846.28;5082638;28;20192;-70
2022/12/22 10:11:57;;;;;;;47.50;31.60;;;;;;;4.16;69.71;92852.41;5088755;28;20295;-70
2022/12/22 10:14:30;;;;;;;53.37;31.30;;;;;;;3.91;69.96;92834.69;5088316;28;20228;-70
2022/12/22 10:17:14;;;;;;;47.57;32.03;;;;;;;4.04;69.64;92833.59;5088412;28;20216;-70
2022/12/22 10:19:39;;;;;;;40.50;27.97;;;;;;;4.19;69.34;92832.06;5086519;28;20250;-70
2022/12/22 10:22:26;;;;;;;43.03;28.10;;;;;;;4.47;67.23;92842.31;5069144;28;20224;-71
2022/12/22 10:24:52;;;;;;;52.93;29.67;;;;;;;4.38;67.86;92842.94;5079876;28;20192;-70
2022/12/22 10:27:18;;;;;;;46.57;29.97;;;;;;;4.45;67.56;92836.59;5088357;28;20232;-70
2022/12/22 10:29:43;;;;;;;41.13;29.60;;;;;;;4.25;67.66;92818.19;5089044;28;20188;-70
2022/12/22 10:32:15;;;;;;;53.17;29.43;;;;;;;4.17;68.85;92828.91;5088481;28;20225;-70
2022/12/22 10:35:04;;;;;;;51.23;31.13;;;;;;;4.45;68.11;92825.50;5088396;28;20244;-70
2022/12/22 10:37:35;;;;;;;48.27;30.13;;;;;;;4.50;67.62;92823.75;5086924;28;20284;-70
2022/12/22 10:40:21;;;;;;;49.57;30.57;;;;;;;4.78;66.62;92825.44;5088872;28;20726;-70
2022/12/22 10:42:52;;;;;;;45.20;31.37;;;;;;;4.80;66.26;92823.41;5088054;28;20239;-70
2022/12/22 10:45:24;;;;;;;56.53;32.00;;;;;;;4.73;66.78;92822.81;5084625;28;20180;-70
2022/12/22 10:47:53;;;;;;;50.13;31.40;;;;;;;4.99;65.90;92816.94;5084476;28;20259;-70
2022/12/22 10:50:20;;;;;;;52.60;33.10;;;;;;;4.93;65.83;92816.06;5089704;28;20185;-69
2022/12/22 10:52:58;;;;;;;51.63;33.33;;;;;;;4.70;66.83;92807.78;5068968;28;20217;-70
2022/12/22 10:55:28;;;;;;;44.43;30.80;;;;;;;5.08;65.83;92809.53;5085654;28;20184;-70
2022/12/22 10:58:09;;;;;;;55.77;34.33;;;;;;;4.87;65.98;92803.34;5086002;28;20200;-69
2022/12/22 11:00:40;;;;;;;54.00;31.53;;;;;;;4.95;66.32;92806.28;5084439;28;20196;-69
2022/12/22 11:03:10;;;;;;;49.30;31.40;;;;;;;5.40;64.60;92806.03;5083708;28;20212;-70
2022/12/22 11:05:36;;;;;;;48.63;32.90;;;;;;;5.38;64.24;92795.16;5084904;28;20203;-69
2022/12/22 11:08:19;;;;;;;56.53;33.00;;;;;;;5.32;64.31;92795.34;5088746;28;20240;-69
2022/12/22 11:10:59;;;;;;;50.17;33.00;;;;;;;5.15;65.30;92800.59;5088147;28;20254;-70
2022/12/22 11:14:05;;;;;;;51.90;33.63;;;;;;;5.26;65.36;92791.13;5087632;28;20215;-69
2022/12/22 11:16:33;;;;;;;53.03;33.90;;;;;;;5.36;65.26;92794.63;5085489;28;20236;-70
2022/12/22 11:19:17;;;;;;;60.30;35.37;;;;;;;5.51;64.61;92796.59;5090078;28;20192;-69
2022/12/22 11:22:03;;;;;;;52.50;33.93;;;;;;;5.65;64.34;92784.84;5088183;28;20225;-69
2022/12/22 11:24:45;;;;;;;62.13;36.30;;;;;;;5.43;64.47;92786.69;5089576;28;20180;-69
2022/12/22 11:27:13;;;;;;;56.80;34.97;;;;;;;5.44;65.13;92783.84;5088484;28;20220;-71
2022/12/22 11:29:54;;;;;;;60.33;37.47;;;;;;;5.58;64.62;92785.03;5087825;28;20204;-70
2022/12/22 11:32:48;;;;;;;60.40;35.57;;;;;;;5.19;65.96;92733.59;5089180;28;20244;-70
2022/12/22 11:35:42;;;;;;;55.47;34.67;;;;;;;5.57;64.71;92767.16;5080957;28;20199;-70
2022/12/22 11:38:32;;;;;;;60.20;36.00;;;;;;;5.88;63.66;92774.22;5081633;28;20234;-70
2022/12/22 11:41:16;;;;;;;57.03;36.57;;;;;;;5.90;63.13;92782.53;5092629;28;20228;-69
2022/12/22 11:44:07;;;;;;;59.00;36.00;;;;;;;5.86;63.35;92776.25;5093028;28;20200;-69
2022/12/22 11:46:44;;;;;;;66.50;35.63;;;;;;;5.99;62.88;92776.63;5092949;28;20325;-71
2022/12/22 11:49:45;;;;;;;57.70;37.10;;;;;;;5.99;62.78;92783.63;5092538;28;20184;-69
2022/12/22 11:52:42;;;;;;;69.50;38.13;;;;;;;6.09;62.60;92771.53;5080756;28;20224;-69
2022/12/22 11:55:17;;;;;;;62.20;37.83;;;;;;;6.04;62.64;92758.53;5084195;28;20235;-69
2022/12/22 11:57:49;;;;;;;53.87;36.17;;;;;;;6.00;62.99;92769.63;5083484;28;20224;-70
2022/12/22 12:00:17;;;;;;;61.57;37.40;;;;;;;6.16;63.02;92761.72;5087095;28;20194;-69
2022/12/22 12:03:20;;;;;;;60.20;35.83;;;;;;;6.30;61.81;92767.28;5092429;28;20279;-70
2022/12/22 12:06:07;;;;;;;70.97;37.33;;;;;;;6.04;62.05;92742.19;5083085;28;20220;-69
2022/12/22 12:09:09;;;;;;;63.67;37.77;;;;;;;6.00;63.54;92761.88;5092778;28;20181;-69
2022/12/22 12:11:44;;;;;;;56.93;36.90;;;;;;;6.08;62.63;92758.81;5089325;28;20224;-71
2022/12/22 12:14:12;;;;;;;56.10;35.37;;;;;;;6.11;63.06;92758.34;5076626;28;20814;-70
2022/12/22 12:16:59;;;;;;;62.93;37.37;;;;;;;6.14;63.06;92750.84;5089705;28;20243;-70
2022/12/22 12:19:43;;;;;;;60.23;36.97;;;;;;;6.24;62.64;92750.16;5089433;28;20189;-69
2022/12/22 12:22:26;;;;;;;58.83;35.63;;;;;;;6.51;61.42;92743.06;5092219;28;20224;-70
2022/12/22 12:25:10;;;;;;;57.93;35.73;;;;;;;6.45;61.66;92746.66;5090965;28;20222;-69
2022/12/22 12:28:05;;;;;;;59.13;35.10;;;;;;;6.57;61.68;92755.03;5091232;28;20220;-69
2022/12/22 12:30:40;;;;;;;56.03;36.93;;;;;;;6.76;60.71;92756.19;5091902;28;20192;-70
2022/12/22 12:33:16;;;;;;;61.13;38.03;;;;;;;6.61;60.70;92752.72;5088054;28;20195;-69
2022/12/22 12:35:52;;;;;;;61.50;37.30;;;;;;;6.56;61.19;92756.06;5090512;28;20227;-68
2022/12/22 12:38:53;;;;;;;65.80;36.97;;;;;;;6.69;60.99;92750.44;5083122;28;20176;-69
2022/12/22 12:41:32;;;;;;;59.50;37.63;;;;;;;6.73;60.63;92751.50;5086198;28;20220;-69
2022/12/22 12:43:59;;;;;;;70.47;36.27;;;;;;;6.75;60.72;92748.66;5092215;28;20193;-69
2022/12/22 12:46:44;;;;;;;64.90;39.60;;;;;;;6.89;60.01;92753.16;5088671;28;20221;-70
2022/12/22 12:49:34;;;;;;;57.43;36.87;;;;;;;6.88;60.17;92743.00;5076465;28;20228;-69
2022/12/22 12:52:05;;;;;;;56.30;36.50;;;;;;;6.91;60.06;92748.47;5090288;28;20235;-69
2022/12/22 12:54:43;;;;;;;58.47;38.87;;;;;;;6.83;60.22;92742.97;5091993;28;20216;-69
2022/12/22 12:57:26;;;;;;;65.27;39.33;;;;;;;6.87;60.38;92741.44;5090844;28;20229;-70
2022/12/22 12:59:59;;;;;;;53.07;36.33;;;;;;;6.64;60.25;92727.06;5094613;28;20189;-71
2022/12/22 13:02:27;;;;;;;47.50;32.47;;;;;;;6.57;60.50;92731.69;5095117;28;20244;-70
2022/12/22 13:05:11;;;;;;;44.07;31.23;;;;;;;6.52;59.72;92742.03;5088513;28;20182;-70
2022/12/22 13:08:06;;;;;;;47.70;32.33;;;;;;;6.54;60.09;92743.34;5089053;28;20234;-71
2022/12/22 13:10:54;;;;;;;47.93;28.97;;;;;;;6.47;60.53;92737.59;5080101;28;20197;-71
2022/12/22 13:13:25;;;;;;;49.70;31.53;;;;;;;6.43;61.14;92746.13;5083308;28;20204;-72
2022/12/22 13:15:59;;;;;;;32.70;22.93;;;;;;;6.27;61.26;92739.28;5097857;28;20231;-72
2022/12/22 13:18:28;;;;;;;27.93;22.50;;;;;;;6.15;62.32;92728.28;5095438;28;20184;-70
2022/12/22 13:21:01;;;;;;;29.23;18.77;;;;;;;6.09;62.79;92730.06;5096085;28;20248;-71
2022/12/22 13:23:35;;;;;;;26.23;18.00;;;;;;;6.02;62.17;92736.50;5098602;28;20197;-72
2022/12/22 13:26:13;;;;;;;18.47;16.60;;;;;;;5.91;61.97;92738.22;5088832;28;20220;-70
2022/12/22 13:28:42;;;;;;;17.83;15.40;;;;;;;5.98;62.27;92730.22;5088764;28;20219;-71
2022/12/22 13:31:23;;;;;;;24.37;16.37;;;;;;;5.89;63.58;92726.53;5090717;28;20216;-71
2022/12/22 13:34:17;;;;;;;18.40;14.53;;;;;;;5.79;64.57;92729.03;5086153;28;20227;-71
2022/12/22 13:36:43;;;;;;;15.17;13.60;;;;;;;5.69;65.06;92728.94;5090461;28;20220;-71
2022/12/22 13:39:14;;;;;;;15.33;13.93;;;;;;;5.63;64.91;92724.72;5089619;28;20185;-71
2022/12/22 13:41:42;;;;;;;15.53;14.03;;;;;;;5.56;64.57;92729.31;5097234;28;20268;-71
2022/12/22 13:44:14;;;;;;;15.30;13.97;;;;;;;5.53;64.71;92724.63;5070584;28;20204;-72
2022/12/22 13:46:41;;;;;;;14.60;13.10;;;;;;;5.34;64.80;92711.25;5081498;28;20225;-71
2022/12/22 13:49:11;;;;;;;16.27;14.97;;;;;;;5.15;64.68;92680.78;5091380;28;20188;-71
2022/12/22 13:51:38;;;;;;;16.23;14.40;;;;;;;5.25;65.18;92714.50;5084035;28;20942;-71
2022/12/22 13:54:22;;;;;;;16.00;14.23;;;;;;;5.24;66.11;92721.50;5090353;28;20223;-69
2022/12/22 13:56:50;;;;;;;18.70;15.63;;;;;;;5.19;66.21;92718.06;5088000;28;20228;-70
2022/12/22 13:59:30;;;;;;;18.10;15.20;;;;;;;5.21;64.71;92722.00;5079511;28;20177;-71
2022/12/22 14:02:10;;;;;;;22.97;16.13;;;;;;;5.14;64.28;92726.56;5076761;28;20246;-69
2022/12/22 14:04:37;;;;;;;25.90;21.33;;;;;;;5.18;63.95;92727.66;5089512;28;20203;-70
2022/12/22 14:07:13;;;;;;;24.77;21.87;;;;;;;5.13;64.48;92724.22;5089303;28;20224;-70
2022/12/22 14:09:44;;;;;;;24.17;21.60;;;;;;;5.01;65.29;92716.59;5089735;28;20169;-68
2022/12/22 14:12:14;;;;;;;36.40;25.17;;;;;;;4.82;66.26;92708.34;5088442;28;20216;-69
2022/12/22 14:14:43;;;;;;;28.57;19.80;;;;;;;4.76;66.86;92711.91;5086238;28;20211;-69
2022/12/22 14:17:20;;;;;;;19.90;17.90;;;;;;;4.64;67.08;92710.44;5082146;28;20221;-69
2022/12/22 14:19:50;;;;;;;19.23;15.53;;;;;;;4.52;66.94;92707.19;5088444;28;20172;-68
2022/12/22 14:22:20;;;;;;;17.50;15.90;;;;;;;4.53;67.85;92713.91;5083113;28;20227;-69
2022/12/22 14:24:58;;;;;;;17.20;15.43;;;;;;;4.49;68.90;92705.88;5085772;28;20188;-69
2022/12/22 14:27:37;;;;;;;16.13;14.43;;;;;;;4.33;70.16;92704.09;5090314;28;20220;-69
2022/12/22 14:30:06;;;;;;;18.27;16.47;;;;;;;4.26;69.99;92703.50;5077089;28;20180;-69
2022/12/22 14:32:36;;;;;;;17.27;15.73;;;;;;;4.11;68.89;92682.63;5088510;28;20221;-69
2022/12/22 14:35:02;;;;;;;18.37;16.73;;;;;;;3.99;67.59;92674.19;5071905;28;20219;-68
2022/12/22 14:37:27;;;;;;;20.33;17.27;;;;;;;4.02;67.61;92680.66;5088726;28;20232;-69
2022/12/22 14:39:56;;;;;;;29.00;16.33;;;;;;;4.12;66.98;92707.44;5089468;28;20215;-68
2022/12/22 14:42:22;;;;;;;18.17;16.40;;;;;;;4.05;67.92;92696.47;5087808;28;20212;-69
2022/12/22 14:44:48;;;;;;;18.00;15.73;;;;;;;3.85;69.36;92695.41;5081781;28;20239;-71
2022/12/22 14:47:16;;;;;;;18.50;16.53;;;;;;;3.71;69.29;92699.31;5088458;28;20212;-70
2022/12/22 14:49:54;;;;;;;19.63;16.67;;;;;;;3.53;69.00;92692.59;5089707;28;20189;-70
2022/12/22 14:52:34;;;;;;;21.87;17.27;;;;;;;3.75;66.37;92713.31;5089157;28;20224;-71
2022/12/22 14:55:02;;;;;;;22.70;19.47;;;;;;;3.76;65.48;92707.13;5089003;28;20208;-69
2022/12/22 14:57:34;;;;;;;28.13;20.10;;;;;;;3.69;65.89;92704.69;5088647;28;20221;-70
2022/12/22 15:00:05;;;;;;;20.17;18.17;;;;;;;3.62;65.46;92700.72;5083921;28;20264;-71
2022/12/22 15:02:35;;;;;;;17.77;15.93;;;;;;;3.67;64.08;92703.38;5088647;28;20289;-71
2022/12/22 15:05:36;;;;;;;21.07;16.23;;;;;;;3.70;64.79;92714.03;5088741;28;20207;-71
2022/12/22 15:08:03;;;;;;;22.03;17.07;;;;;;;3.63;64.87;92713.38;5074534;28;20212;-70
2022/12/22 15:10:36;;;;;;;20.97;15.30;;;;;;;3.58;65.40;92713.28;5089388;28;20168;-69
2022/12/22 15:13:04;;;;;;;16.07;14.57;;;;;;;3.55;65.47;92713.00;5089601;28;20177;-69
2022/12/22 15:15:32;;;;;;;15.60;14.13;;;;;;;3.38;64.81;92699.31;5079974;28;20188;-72